createdAt,value
2023-03-24T00:00:25.811Z,70.38
2023-03-24T00:01:28.043Z,70.48
2023-03-24T00:02:31.365Z,70.74
2023-03-24T00:03:33.666Z,70.11
2023-03-24T00:04:38.548Z,71.45
2023-03-24T00:05:45.081Z,70.62
2023-03-24T00:06:49.698Z,71.85
2023-03-24T00:07:54.874Z,71.71
2023-03-24T00:08:57.921Z,71.57
2023-03-24T00:10:01.099Z,71.99
2023-03-24T00:11:06.987Z,71.27
2023-03-24T00:12:11.598Z,70.99
2023-03-24T00:13:16.801Z,70.69
2023-03-24T00:14:19.488Z,70.67
2023-03-24T00:15:24.404Z,70.64
2023-03-24T00:16:31.856Z,71.05
2023-03-24T00:17:36.047Z,70.41
2023-03-24T00:18:39.651Z,70.26
2023-03-24T00:19:44.625Z,70.01
2023-03-24T00:20:48.008Z,69.46
2023-03-24T00:21:51.045Z,69.57
2023-03-24T00:22:59.366Z,70.80
2023-03-24T00:24:05.453Z,69.82
2023-03-24T00:25:10.402Z,68.95
2023-03-24T00:26:16.667Z,68.93
2023-03-24T00:27:19.988Z,69.05
2023-03-24T00:28:23.040Z,70.05
2023-03-24T00:29:26.450Z,69.01
2023-03-24T00:30:30.885Z,69.12
2023-03-24T00:31:34.208Z,68.90
2023-03-24T00:32:39.178Z,69.28
2023-03-24T00:33:42.083Z,68.18
2023-03-24T00:34:45.442Z,67.99
2023-03-24T00:35:49.250Z,69.10
2023-03-24T00:36:52.674Z,69.07
2023-03-24T00:37:56.919Z,68.95
2023-03-24T00:39:00.705Z,69.69
2023-03-24T00:40:09.752Z,68.93
2023-03-24T00:41:12.499Z,69.25
2023-03-24T00:42:15.573Z,69.94
2023-03-24T00:43:19.160Z,69.85
2023-03-24T00:44:22.345Z,70.07
2023-03-24T00:45:25.096Z,70.10
2023-03-24T00:46:28.848Z,69.25
2023-03-24T00:47:36.957Z,69.42
2023-03-24T00:48:43.605Z,70.41
2023-03-24T00:49:47.109Z,69.59
2023-03-24T00:50:51.471Z,68.92
2023-03-24T00:51:54.609Z,69.23
2023-03-24T00:52:58.588Z,69.63
2023-03-24T00:54:02.621Z,69.70
2023-03-24T00:55:07.338Z,70.35
2023-03-24T00:56:11.188Z,70.16
2023-03-24T00:57:15.406Z,69.68
2023-03-24T00:58:23.763Z,69.23
2023-03-24T00:59:29.752Z,69.05
2023-03-24T01:00:32.951Z,69.10
2023-03-24T01:01:38.683Z,69.55
2023-03-24T01:02:42.002Z,69.37
2023-03-24T01:03:48.552Z,69.94
2023-03-24T01:04:58.612Z,69.40
2023-03-24T01:06:04.362Z,70.39
2023-03-24T01:07:08.292Z,69.54
2023-03-24T01:08:11.335Z,69.95
2023-03-24T01:09:14.545Z,69.06
2023-03-24T01:10:18.415Z,69.54
2023-03-24T01:11:22.562Z,69.40
2023-03-24T01:12:33.683Z,68.50
2023-03-24T01:13:37.618Z,68.85
2023-03-24T01:14:41.632Z,68.39
2023-03-24T01:15:45.657Z,68.97
2023-03-24T01:16:48.868Z,69.06
2023-03-24T01:17:54.552Z,68.11
2023-03-24T01:18:58.325Z,68.41
2023-03-24T01:20:02.913Z,69.01
2023-03-24T01:21:06.497Z,68.26
2023-03-24T01:22:10.378Z,68.82
2023-03-24T01:23:15.420Z,68.66
2023-03-24T01:24:18.745Z,68.52
2023-03-24T01:25:23.971Z,68.62
2023-03-24T01:26:27.696Z,68.71
2023-03-24T01:27:31.360Z,68.91
2023-03-24T01:28:37.580Z,68.41
2023-03-24T01:29:41.358Z,68.36
2023-03-24T01:30:46.340Z,69.46
2023-03-24T01:31:51.190Z,69.10
2023-03-24T01:32:54.619Z,68.88
2023-03-24T01:33:57.716Z,68.72
2023-03-24T01:35:00.096Z,69.04
2023-03-24T01:36:05.253Z,69.28
2023-03-24T01:37:08.685Z,69.63
2023-03-24T01:38:12.713Z,69.50
2023-03-24T01:39:15.860Z,69.82
2023-03-24T01:40:20.589Z,69.69
2023-03-24T01:41:22.995Z,70.39
2023-03-24T01:42:26.720Z,70.29
2023-03-24T01:43:32.936Z,69.81
2023-03-24T01:44:37.646Z,70.17
2023-03-24T01:45:42.308Z,70.93
2023-03-24T01:46:45.504Z,70.77
2023-03-24T01:47:48.275Z,70.26
2023-03-24T01:49:04.433Z,70.18
2023-03-24T01:50:07.168Z,70.43
2023-03-24T01:51:14.732Z,70.22
2023-03-24T01:52:27.166Z,70.24
2023-03-24T01:53:32.196Z,70.83
2023-03-24T01:54:45.622Z,70.52
2023-03-24T01:55:51.276Z,70.62
2023-03-24T01:57:13.991Z,71.88
2023-03-24T01:58:18.963Z,70.77
2023-03-24T01:59:25.912Z,71.18
2023-03-24T02:00:31.541Z,70.86
2023-03-24T02:01:36.555Z,70.91
2023-03-24T02:02:53.466Z,70.47
2023-03-24T02:03:59.531Z,70.47
2023-03-24T02:05:07.903Z,70.51
2023-03-24T02:06:13.772Z,70.53
2023-03-24T02:07:18.302Z,70.91
2023-03-24T02:08:28.480Z,70.61
2023-03-24T02:09:33.141Z,70.75
2023-03-24T02:10:37.781Z,70.41
2023-03-24T02:11:40.853Z,70.47
2023-03-24T02:12:44.751Z,70.34
2023-03-24T02:13:49.199Z,70.63
2023-03-24T02:14:52.724Z,70.87
2023-03-24T02:16:04.116Z,71.04
2023-03-24T02:17:13.365Z,70.73
2023-03-24T02:18:21.522Z,70.65
2023-03-24T02:19:30.400Z,70.33
2023-03-24T02:20:47.562Z,70.71
2023-03-24T02:22:10.904Z,70.83
2023-03-24T02:23:21.308Z,70.27
2023-03-24T02:24:38.435Z,69.86
2023-03-24T02:25:52.506Z,69.81
2023-03-24T02:27:15.865Z,70.06
2023-03-24T02:28:21.127Z,69.96
2023-03-24T02:29:37.447Z,70.63
2023-03-24T02:30:53.541Z,70.58
2023-03-24T02:32:15.393Z,70.52
2023-03-24T02:33:34.869Z,70.81
2023-03-24T02:34:51.794Z,70.89
2023-03-24T02:36:10.623Z,71.95
2023-03-24T02:37:32.109Z,71.69
2023-03-24T02:38:50.502Z,71.63
2023-03-24T02:40:02.606Z,72.31
2023-03-24T02:41:07.776Z,71.95
2023-03-24T02:42:12.183Z,71.76
2023-03-24T02:43:18.279Z,72.50
2023-03-24T02:44:23.718Z,72.44
2023-03-24T02:45:34.862Z,72.65
2023-03-24T02:46:46.199Z,72.95
2023-03-24T02:47:59.708Z,72.40
2023-03-24T02:49:21.687Z,72.50
2023-03-24T02:50:29.513Z,71.93
2023-03-24T02:51:43.118Z,72.15
2023-03-24T02:52:49.653Z,72.39
2023-03-24T02:53:57.836Z,72.75
2023-03-24T02:55:05.716Z,72.28
2023-03-24T02:56:13.874Z,72.57
2023-03-24T02:58:49.006Z,72.16
2023-03-24T02:59:58.011Z,72.53
2023-03-24T03:01:23.474Z,72.28
2023-03-24T03:02:33.422Z,72.19
2023-03-24T03:03:52.046Z,72.27
2023-03-24T03:05:00.361Z,72.21
2023-03-24T03:06:12.955Z,71.77
2023-03-24T03:07:20.144Z,71.52
2023-03-24T03:08:25.500Z,71.60
2023-03-24T03:09:29.332Z,71.39
2023-03-24T03:10:36.617Z,70.77
2023-03-24T03:11:41.419Z,70.78
2023-03-24T03:12:49.425Z,71.64
2023-03-24T03:13:57.648Z,72.53
2023-03-24T03:15:10.036Z,71.60
2023-03-24T03:16:26.174Z,70.94
2023-03-24T03:17:31.899Z,70.68
2023-03-24T03:18:44.257Z,71.64
2023-03-24T03:19:50.742Z,72.08
2023-03-24T03:20:56.280Z,71.62
2023-03-24T03:22:02.898Z,71.49
2023-03-24T03:23:17.288Z,71.51
2023-03-24T03:24:27.731Z,71.73
2023-03-24T03:25:32.338Z,71.60
2023-03-24T03:26:35.680Z,71.84
2023-03-24T03:27:40.802Z,71.65
2023-03-24T03:28:47.976Z,70.96
2023-03-24T03:29:54.338Z,70.87
2023-03-24T03:30:59.479Z,71.05
2023-03-24T03:32:09.041Z,71.41
2023-03-24T03:33:21.112Z,70.96
2023-03-24T03:34:29.717Z,71.70
2023-03-24T03:35:35.867Z,71.34
2023-03-24T03:36:41.576Z,72.01
2023-03-24T03:37:58.769Z,71.62
2023-03-24T03:39:21.568Z,71.46
2023-03-24T03:40:26.414Z,70.87
2023-03-24T03:41:33.064Z,71.65
2023-03-24T03:42:38.347Z,71.63
2023-03-24T03:43:46.335Z,71.26
2023-03-24T03:44:49.953Z,71.42
2023-03-24T03:45:55.511Z,71.30
2023-03-24T03:47:00.126Z,71.43
2023-03-24T03:48:07.207Z,71.91
2023-03-24T03:49:12.345Z,71.66
2023-03-24T03:50:16.358Z,71.47
2023-03-24T03:51:20.277Z,71.78
2023-03-24T03:52:27.741Z,72.92
2023-03-24T03:53:32.511Z,71.65
2023-03-24T03:54:38.209Z,71.62
2023-03-24T03:55:42.522Z,72.18
2023-03-24T03:56:47.324Z,71.33
2023-03-24T03:58:00.337Z,70.99
2023-03-24T03:59:08.823Z,71.21
2023-03-24T04:00:17.037Z,72.82
2023-03-24T04:01:28.611Z,71.03
2023-03-24T04:02:42.714Z,70.69
2023-03-24T04:03:52.366Z,70.89
2023-03-24T04:05:16.702Z,70.76
2023-03-24T04:06:44.547Z,71.43
2023-03-24T04:08:03.768Z,71.73
2023-03-24T04:09:32.833Z,70.80
2023-03-24T04:10:47.272Z,71.18
2023-03-24T04:12:00.606Z,70.83
2023-03-24T04:13:19.457Z,70.77
2023-03-24T04:14:56.069Z,70.65
2023-03-24T04:16:19.534Z,70.66
2023-03-24T04:17:29.518Z,70.24
2023-03-24T04:18:44.934Z,70.41
2023-03-24T04:19:54.037Z,70.76
2023-03-24T04:21:18.522Z,70.73
2023-03-24T04:22:32.115Z,70.06
2023-03-24T04:23:51.382Z,70.34
2023-03-24T04:25:00.694Z,70.19
2023-03-24T04:26:11.152Z,70.46
2023-03-24T04:27:30.097Z,70.63
2023-03-24T04:28:36.630Z,69.92
2023-03-24T04:29:47.481Z,69.21
2023-03-24T04:30:51.685Z,69.12
2023-03-24T04:32:06.990Z,69.54
2023-03-24T04:33:11.217Z,68.75
2023-03-24T04:34:16.811Z,69.01
2023-03-24T04:35:29.672Z,69.61
2023-03-24T04:36:45.870Z,69.94
2023-03-24T04:38:04.228Z,69.23
2023-03-24T04:39:10.328Z,68.75
2023-03-24T04:40:18.006Z,68.82
2023-03-24T04:41:26.523Z,68.55
2023-03-24T04:42:34.836Z,68.52
2023-03-24T04:43:38.761Z,69.46
2023-03-24T04:44:44.458Z,68.63
2023-03-24T04:46:02.119Z,68.82
2023-03-24T04:47:09.211Z,68.75
2023-03-24T04:48:15.024Z,70.02
2023-03-24T04:49:25.499Z,69.67
2023-03-24T04:50:32.485Z,69.40
2023-03-24T04:51:38.796Z,70.43
2023-03-24T04:52:50.596Z,69.57
2023-03-24T04:53:55.934Z,69.63
2023-03-24T04:55:00.380Z,69.01
2023-03-24T04:56:19.451Z,69.01
2023-03-24T04:57:39.987Z,68.49
2023-03-24T04:58:43.233Z,69.05
2023-03-24T04:59:45.856Z,68.82
2023-03-24T05:00:49.466Z,69.58
2023-03-24T05:01:51.908Z,68.31
2023-03-24T05:02:57.525Z,69.65
2023-03-24T05:04:08.994Z,69.96
2023-03-24T05:05:15.473Z,69.19
2023-03-24T05:06:22.262Z,68.89
2023-03-24T05:07:26.770Z,69.18
2023-03-24T05:08:33.310Z,68.76
2023-03-24T05:09:38.329Z,69.62
2023-03-24T05:10:42.412Z,69.65
2023-03-24T05:11:45.709Z,69.46
2023-03-24T05:12:47.843Z,70.06
2023-03-24T05:14:04.943Z,70.03
2023-03-24T05:15:10.637Z,69.84
2023-03-24T05:16:14.551Z,70.13
2023-03-24T05:17:20.729Z,70.71
2023-03-24T05:18:24.510Z,71.80
2023-03-24T05:19:26.735Z,71.15
2023-03-24T05:20:34.242Z,71.91
2023-03-24T05:21:39.504Z,71.65
2023-03-24T05:22:42.906Z,71.05
2023-03-24T05:23:49.429Z,71.43
2023-03-24T05:24:53.036Z,71.67
2023-03-24T05:25:56.811Z,72.52
2023-03-24T05:27:01.106Z,72.32
2023-03-24T05:28:06.198Z,71.91
2023-03-24T05:29:09.040Z,72.37
2023-03-24T05:30:14.538Z,72.05
2023-03-24T05:31:18.824Z,72.22
2023-03-24T05:32:23.121Z,72.23
2023-03-24T05:33:26.398Z,72.11
2023-03-24T05:34:28.964Z,71.75
2023-03-24T05:35:39.844Z,71.15
2023-03-24T05:36:43.739Z,70.93
2023-03-24T05:37:47.451Z,70.73
2023-03-24T05:38:51.204Z,71.75
2023-03-24T05:39:56.082Z,71.27
2023-03-24T05:41:01.183Z,71.95
2023-03-24T05:42:06.787Z,71.23
2023-03-24T05:43:12.486Z,71.96
2023-03-24T05:44:17.697Z,71.80
2023-03-24T05:45:23.975Z,71.97
2023-03-24T05:46:29.830Z,72.08
2023-03-24T05:47:35.933Z,72.03
2023-03-24T05:48:39.398Z,72.04
2023-03-24T05:49:44.913Z,72.39
2023-03-24T05:50:50.693Z,72.93
2023-03-24T05:51:55.032Z,72.62
2023-03-24T05:52:59.550Z,74.02
2023-03-24T05:54:09.663Z,74.48
2023-03-24T05:55:17.594Z,74.29
2023-03-24T05:56:22.249Z,75.29
2023-03-24T05:57:35.352Z,73.55
2023-03-24T05:58:52.213Z,72.97
2023-03-24T05:59:55.501Z,71.74
2023-03-24T06:01:18.010Z,73.29
2023-03-24T06:02:23.241Z,73.86
2023-03-24T06:03:30.636Z,73.35
2023-03-24T06:04:36.860Z,72.58
2023-03-24T06:05:44.414Z,72.54
2023-03-24T06:06:48.163Z,71.68
2023-03-24T06:07:59.410Z,70.42
2023-03-24T06:09:05.178Z,71.18
2023-03-24T06:10:12.353Z,69.99
2023-03-24T06:11:17.758Z,70.11
2023-03-24T06:12:22.747Z,69.99
2023-03-24T06:13:31.696Z,69.22
2023-03-24T06:14:40.621Z,69.52
2023-03-24T06:15:50.270Z,68.72
2023-03-24T06:17:15.724Z,68.51
2023-03-24T06:18:21.992Z,67.02
2023-03-24T06:19:27.471Z,65.06
2023-03-24T06:20:40.982Z,63.54
2023-03-24T06:21:56.361Z,62.20
2023-03-24T06:23:01.639Z,62.46
2023-03-24T06:24:07.652Z,62.25
2023-03-24T06:25:14.213Z,63.05
2023-03-24T06:26:20.300Z,62.20
2023-03-24T06:27:31.855Z,62.25
2023-03-24T06:28:35.669Z,62.12
2023-03-24T06:29:44.486Z,62.35
2023-03-24T06:30:48.439Z,61.14
2023-03-24T06:31:53.697Z,60.73
2023-03-24T06:32:58.564Z,60.74
2023-03-24T06:34:02.096Z,59.88
2023-03-24T06:35:06.306Z,58.30
2023-03-24T06:36:17.957Z,59.04
2023-03-24T06:37:24.080Z,59.02
2023-03-24T06:38:28.403Z,57.79
2023-03-24T06:39:32.232Z,57.83
2023-03-24T06:40:36.516Z,58.10
2023-03-24T06:41:38.813Z,57.32
2023-03-24T06:42:43.076Z,56.25
2023-03-24T06:43:46.776Z,54.97
2023-03-24T06:44:50.792Z,55.71
2023-03-24T06:45:54.088Z,53.61
2023-03-24T06:46:59.236Z,52.23
2023-03-24T06:48:04.589Z,51.24
2023-03-24T06:49:07.651Z,49.50
2023-03-24T06:50:13.968Z,50.06
2023-03-24T06:51:17.670Z,50.11
2023-03-24T06:52:21.708Z,50.83
2023-03-24T06:53:26.363Z,51.04
2023-03-24T06:54:30.812Z,51.77
2023-03-24T06:55:33.883Z,52.67
2023-03-24T06:56:37.541Z,53.26
2023-03-24T06:57:44.553Z,52.46
2023-03-24T07:00:12.831Z,52.95
2023-03-24T07:01:18.101Z,53.02
2023-03-24T07:02:27.416Z,52.57
2023-03-24T07:03:33.327Z,52.64
2023-03-24T07:04:41.416Z,53.32
2023-03-24T07:05:49.937Z,53.90
2023-03-24T07:07:08.631Z,54.47
2023-03-24T07:09:09.797Z,56.34
2023-03-24T07:10:14.925Z,57.34
2023-03-24T07:11:18.741Z,57.86
2023-03-24T07:12:26.413Z,58.41
2023-03-24T07:13:30.972Z,58.80
2023-03-24T07:14:37.499Z,59.31
2023-03-24T07:15:41.154Z,60.29
2023-03-24T07:16:47.294Z,59.94
2023-03-24T07:18:07.979Z,60.97
2023-03-24T07:19:15.896Z,61.26
2023-03-24T07:20:21.340Z,60.75
2023-03-24T07:21:29.449Z,62.15
2023-03-24T07:22:32.975Z,62.68
2023-03-24T07:23:53.397Z,61.54
2023-03-24T07:24:59.753Z,61.33
2023-03-24T07:26:07.485Z,61.59
2023-03-24T07:27:31.368Z,61.48
2023-03-24T07:28:34.977Z,61.40
2023-03-24T07:29:37.210Z,61.78
2023-03-24T07:30:43.335Z,61.87
2023-03-24T07:31:47.835Z,62.35
2023-03-24T07:32:52.544Z,61.49
2023-03-24T07:33:55.839Z,61.81
2023-03-24T07:34:59.647Z,62.56
2023-03-24T07:36:02.360Z,62.00
2023-03-24T07:37:07.083Z,62.44
2023-03-24T07:38:10.687Z,61.40
2023-03-24T07:39:14.224Z,61.62
2023-03-24T07:40:17.709Z,61.21
2023-03-24T07:41:24.603Z,61.73
2023-03-24T07:42:29.616Z,61.41
2023-03-24T07:43:35.916Z,62.14
2023-03-24T07:44:45.204Z,60.91
2023-03-24T07:45:48.201Z,61.60
2023-03-24T07:46:51.742Z,62.10
2023-03-24T07:47:56.471Z,62.04
2023-03-24T07:49:08.582Z,62.70
2023-03-24T07:50:09.212Z,62.56
2023-03-24T07:51:13.150Z,62.50
2023-03-24T07:52:17.457Z,63.24
2023-03-24T07:53:22.750Z,62.69
2023-03-24T07:54:27.767Z,62.44
2023-03-24T07:55:32.110Z,63.47
2023-03-24T07:56:37.403Z,62.62
2023-03-24T07:57:41.783Z,62.44
2023-03-24T07:58:45.532Z,62.08
2023-03-24T08:00:21.719Z,61.97
2023-03-24T08:01:42.920Z,61.88
2023-03-24T08:02:48.441Z,61.34
2023-03-24T08:04:06.382Z,61.45
2023-03-24T08:05:22.383Z,61.83
2023-03-24T08:06:33.556Z,62.07
2023-03-24T08:07:40.231Z,62.06
2023-03-24T08:08:45.058Z,61.50
2023-03-24T08:09:47.594Z,61.01
2023-03-24T08:10:52.773Z,61.47
2023-03-24T08:11:56.171Z,62.44
2023-03-24T08:13:00.219Z,61.42
2023-03-24T08:14:04.138Z,61.01
2023-03-24T08:15:08.520Z,61.04
2023-03-24T08:16:14.432Z,61.30
2023-03-24T08:17:17.982Z,61.16
2023-03-24T08:18:22.321Z,60.83
2023-03-24T08:19:26.547Z,60.50
2023-03-24T08:20:30.158Z,60.84
2023-03-24T08:21:32.941Z,61.05
2023-03-24T08:22:39.361Z,60.79
2023-03-24T08:23:44.332Z,60.06
2023-03-24T08:24:47.944Z,59.82
2023-03-24T08:25:52.810Z,59.87
2023-03-24T08:26:58.022Z,60.19
2023-03-24T08:28:00.636Z,60.04
2023-03-24T08:29:05.193Z,59.57
2023-03-24T08:30:12.877Z,58.74
2023-03-24T08:31:18.511Z,59.20
2023-03-24T08:32:20.960Z,59.34
2023-03-24T08:33:24.163Z,59.05
2023-03-24T08:34:29.316Z,59.19
2023-03-24T08:35:34.922Z,59.20
2023-03-24T08:36:38.307Z,58.88
2023-03-24T08:37:45.505Z,58.82
2023-03-24T08:38:50.638Z,58.88
2023-03-24T08:39:56.130Z,58.56
2023-03-24T08:41:02.118Z,59.20
2023-03-24T08:42:07.212Z,58.87
2023-03-24T08:43:13.711Z,59.67
2023-03-24T08:44:17.587Z,59.88
2023-03-24T08:45:22.427Z,58.79
2023-03-24T08:46:25.346Z,59.35
2023-03-24T08:47:29.565Z,59.54
2023-03-24T08:48:38.551Z,58.81
2023-03-24T08:49:41.970Z,59.84
2023-03-24T08:50:44.587Z,59.77
2023-03-24T08:51:48.154Z,60.17
2023-03-24T08:52:51.565Z,59.67
2023-03-24T08:53:59.079Z,59.31
2023-03-24T08:55:04.668Z,59.71
2023-03-24T08:56:09.936Z,59.97
2023-03-24T08:57:13.112Z,59.23
2023-03-24T08:58:20.463Z,58.93
2023-03-24T08:59:22.601Z,59.09
2023-03-24T09:00:27.373Z,59.78
2023-03-24T09:01:29.681Z,59.34
2023-03-24T09:02:34.093Z,58.96
2023-03-24T09:03:38.391Z,59.33
2023-03-24T09:04:43.109Z,59.44
2023-03-24T09:05:48.118Z,58.02
2023-03-24T09:06:52.252Z,57.73
2023-03-24T09:07:56.081Z,58.30
2023-03-24T09:08:59.395Z,58.34
2023-03-24T09:10:03.307Z,57.61
2023-03-24T09:11:06.797Z,58.09
2023-03-24T09:12:10.340Z,58.50
2023-03-24T09:13:14.022Z,57.33
2023-03-24T09:14:16.578Z,58.31
2023-03-24T09:15:20.409Z,58.66
2023-03-24T09:16:23.441Z,57.92
2023-03-24T09:17:26.808Z,57.41
2023-03-24T09:18:31.861Z,56.74
2023-03-24T09:19:35.146Z,57.60
2023-03-24T09:20:38.452Z,57.08
2023-03-24T09:21:43.618Z,56.74
2023-03-24T09:22:48.804Z,55.71
2023-03-24T09:23:51.326Z,55.94
2023-03-24T09:24:56.535Z,55.72
2023-03-24T09:25:59.633Z,56.25
2023-03-24T09:27:03.245Z,55.07
2023-03-24T09:28:07.706Z,55.59
2023-03-24T09:29:11.309Z,55.60
2023-03-24T09:30:16.370Z,54.67
2023-03-24T09:31:18.997Z,54.27
2023-03-24T09:32:21.720Z,52.99
2023-03-24T09:33:24.689Z,53.08
2023-03-24T09:34:29.251Z,53.53
2023-03-24T09:35:32.262Z,51.42
2023-03-24T09:36:37.498Z,52.17
2023-03-24T09:37:41.127Z,51.41
2023-03-24T09:38:44.437Z,51.74
2023-03-24T09:39:46.866Z,50.98
2023-03-24T09:40:51.105Z,51.23
2023-03-24T09:41:56.867Z,51.53
2023-03-24T09:43:09.203Z,51.42
2023-03-24T09:44:20.314Z,52.60
2023-03-24T09:45:24.689Z,53.38
2023-03-24T09:46:31.672Z,53.86
2023-03-24T09:47:44.126Z,53.40
2023-03-24T09:48:48.743Z,52.91
2023-03-24T09:49:53.182Z,53.02
2023-03-24T09:50:59.400Z,52.79
2023-03-24T09:52:07.200Z,52.51
2023-03-24T09:53:13.211Z,52.63
2023-03-24T09:54:35.956Z,52.53
2023-03-24T09:55:43.649Z,53.00
2023-03-24T09:56:51.650Z,51.34
2023-03-24T09:58:03.005Z,50.16
2023-03-24T09:59:08.347Z,50.59
2023-03-24T10:00:30.880Z,50.32
2023-03-24T10:01:34.871Z,50.23
2023-03-24T10:02:38.561Z,50.54
2023-03-24T10:03:45.851Z,50.88
2023-03-24T10:04:51.856Z,50.68
2023-03-24T10:06:03.222Z,50.78
2023-03-24T10:07:25.316Z,50.54
2023-03-24T10:08:31.556Z,50.59
2023-03-24T10:09:36.710Z,51.00
2023-03-24T10:10:58.921Z,50.63
2023-03-24T10:12:22.699Z,51.53
2023-03-24T10:13:26.797Z,51.79
2023-03-24T10:14:47.234Z,51.17
2023-03-24T10:15:51.822Z,51.33
2023-03-24T10:16:58.520Z,51.98
2023-03-24T10:18:09.790Z,51.89
2023-03-24T10:19:15.141Z,52.02
2023-03-24T10:20:24.224Z,51.11
2023-03-24T10:21:28.653Z,51.19
2023-03-24T10:22:32.763Z,50.89
2023-03-24T10:23:43.355Z,50.20
2023-03-24T10:24:52.839Z,49.64
2023-03-24T10:26:14.530Z,49.16
2023-03-24T10:27:24.387Z,49.54
2023-03-24T10:28:31.772Z,49.10
2023-03-24T10:29:36.743Z,49.64
2023-03-24T10:30:44.116Z,49.16
2023-03-24T10:31:49.301Z,49.69
2023-03-24T10:32:52.277Z,49.52
2023-03-24T10:33:55.968Z,50.03
2023-03-24T10:35:02.918Z,50.25
2023-03-24T10:36:12.704Z,50.45
2023-03-24T10:37:19.218Z,50.32
2023-03-24T10:38:24.820Z,50.65
2023-03-24T10:39:43.610Z,50.25
2023-03-24T10:40:34.859Z,50.01
2023-03-24T10:41:37.110Z,49.59
2023-03-24T10:42:40.616Z,49.09
2023-03-24T10:43:45.375Z,49.22
2023-03-24T10:44:51.234Z,49.49
2023-03-24T10:45:55.393Z,49.87
2023-03-24T10:47:00.277Z,49.43
2023-03-24T10:48:04.744Z,48.49
2023-03-24T10:49:10.158Z,48.80
2023-03-24T10:50:16.470Z,47.74
2023-03-24T10:51:22.142Z,47.20
2023-03-24T10:52:24.798Z,47.64
2023-03-24T10:53:28.513Z,46.94
2023-03-24T10:54:34.183Z,46.76
2023-03-24T10:55:43.367Z,46.43
2023-03-24T10:56:53.560Z,46.35
2023-03-24T10:57:58.722Z,47.00
2023-03-24T10:59:02.315Z,46.52
2023-03-24T11:00:18.048Z,46.00
2023-03-24T11:01:28.150Z,46.38
2023-03-24T11:02:33.831Z,45.83
2023-03-24T11:03:37.704Z,45.77
2023-03-24T11:04:43.808Z,46.16
2023-03-24T11:05:47.730Z,45.46
2023-03-24T11:07:04.260Z,45.57
2023-03-24T11:08:16.344Z,46.93
2023-03-24T11:09:23.384Z,46.81
2023-03-24T11:10:27.969Z,47.12
2023-03-24T11:11:32.280Z,46.36
2023-03-24T11:12:37.353Z,46.80
2023-03-24T11:13:41.781Z,46.69
2023-03-24T11:14:46.445Z,46.92
2023-03-24T11:15:57.674Z,46.82
2023-03-24T11:17:06.865Z,46.05
2023-03-24T11:18:16.906Z,46.66
2023-03-24T11:19:23.482Z,46.14
2023-03-24T11:20:29.867Z,46.24
2023-03-24T11:21:35.138Z,46.13
2023-03-24T11:22:39.830Z,46.27
2023-03-24T11:23:46.427Z,46.23
2023-03-24T11:24:53.185Z,46.24
2023-03-24T11:26:01.529Z,45.76
2023-03-24T11:27:06.119Z,45.21
2023-03-24T11:28:11.651Z,45.22
2023-03-24T11:29:17.711Z,45.16
2023-03-24T11:30:21.265Z,44.44
2023-03-24T11:31:29.928Z,44.04
2023-03-24T11:32:33.854Z,44.67
2023-03-24T11:33:44.856Z,45.05
2023-03-24T11:34:50.931Z,44.47
2023-03-24T11:36:05.212Z,44.33
2023-03-24T11:37:01.687Z,44.65
2023-03-24T11:38:06.836Z,44.54
2023-03-24T11:39:18.439Z,43.87
2023-03-24T11:40:23.873Z,44.61
2023-03-24T11:41:27.438Z,44.55
2023-03-24T11:42:30.652Z,44.05
2023-03-24T11:43:34.337Z,44.15
2023-03-24T11:44:42.232Z,44.40
2023-03-24T11:45:47.146Z,44.23
2023-03-24T11:46:52.589Z,43.74
2023-03-24T11:47:57.897Z,44.14
2023-03-24T11:49:03.003Z,43.96
2023-03-24T11:50:13.882Z,43.06
2023-03-24T11:51:18.097Z,43.18
2023-03-24T11:52:23.585Z,43.25
2023-03-24T11:53:30.429Z,43.62
2023-03-24T11:54:35.188Z,43.43
2023-03-24T11:55:44.125Z,43.46
2023-03-24T11:56:50.513Z,43.01
2023-03-24T11:58:01.901Z,43.08
2023-03-24T11:59:13.062Z,42.53
2023-03-24T12:00:20.236Z,43.32
2023-03-24T12:01:26.927Z,41.83
2023-03-24T12:02:43.976Z,41.48
2023-03-24T12:04:02.308Z,41.56
2023-03-24T12:05:16.809Z,41.38
2023-03-24T12:06:24.205Z,42.18
2023-03-24T12:07:33.010Z,42.82
2023-03-24T12:08:41.529Z,43.15
2023-03-24T12:09:49.440Z,43.22
2023-03-24T12:11:13.030Z,43.27
2023-03-24T12:12:24.642Z,42.97
2023-03-24T12:13:33.018Z,43.19
2023-03-24T12:14:56.403Z,42.50
2023-03-24T12:16:19.472Z,43.18
2023-03-24T12:17:25.791Z,43.76
2023-03-24T12:18:34.277Z,43.99
2023-03-24T12:19:38.524Z,44.00
2023-03-24T12:21:00.193Z,44.48
2023-03-24T12:22:06.539Z,44.01
2023-03-24T12:23:11.808Z,43.83
2023-03-24T12:24:17.298Z,43.68
2023-03-24T12:25:31.759Z,44.45
2023-03-24T12:26:41.228Z,44.12
2023-03-24T12:27:49.224Z,43.92
2023-03-24T12:28:54.820Z,44.42
2023-03-24T12:30:01.049Z,44.79
2023-03-24T12:31:15.108Z,44.25
2023-03-24T12:32:21.557Z,44.70
2023-03-24T12:33:35.393Z,44.76
2023-03-24T12:34:58.821Z,44.85
2023-03-24T12:36:19.379Z,44.59
2023-03-24T12:37:27.871Z,44.82
2023-03-24T12:38:43.067Z,43.92
2023-03-24T12:39:57.135Z,43.80
2023-03-24T12:41:10.762Z,44.10
2023-03-24T12:42:17.304Z,44.57
2023-03-24T12:43:22.578Z,43.78
2023-03-24T12:44:30.591Z,44.59
2023-03-24T12:45:42.405Z,44.22
2023-03-24T12:46:54.167Z,44.90
2023-03-24T12:47:59.802Z,44.15
2023-03-24T12:49:20.519Z,44.28
2023-03-24T12:50:27.693Z,44.40
2023-03-24T12:51:33.181Z,44.88
2023-03-24T12:53:06.692Z,44.64
2023-03-24T12:54:06.193Z,44.10
2023-03-24T12:55:21.089Z,44.71
2023-03-24T12:56:29.902Z,45.46
2023-03-24T12:57:37.422Z,45.16
2023-03-24T12:58:45.581Z,45.26
2023-03-24T12:59:53.386Z,45.17
2023-03-24T13:01:07.116Z,45.23
2023-03-24T13:02:13.670Z,45.29
2023-03-24T13:03:18.955Z,45.67
2023-03-24T13:04:23.474Z,45.58
2023-03-24T13:05:34.624Z,45.59
2023-03-24T13:06:39.962Z,45.51
2023-03-24T13:07:47.468Z,46.19
2023-03-24T13:08:52.774Z,45.93
2023-03-24T13:09:59.176Z,45.91
2023-03-24T13:11:04.665Z,46.28
2023-03-24T13:12:12.562Z,46.07
2023-03-24T13:13:26.789Z,45.95
2023-03-24T13:14:36.914Z,45.64
2023-03-24T13:15:57.655Z,45.96
2023-03-24T13:17:03.579Z,46.16
2023-03-24T13:18:12.691Z,46.52
2023-03-24T13:19:19.344Z,46.08
2023-03-24T13:20:29.963Z,45.81
2023-03-24T13:21:34.040Z,46.04
2023-03-24T13:22:37.370Z,45.78
2023-03-24T13:23:48.620Z,46.42
2023-03-24T13:24:52.947Z,46.14
2023-03-24T13:26:00.331Z,45.99
2023-03-24T13:27:07.061Z,45.67
2023-03-24T13:28:13.498Z,45.50
2023-03-24T13:29:38.693Z,45.83
2023-03-24T13:30:37.956Z,45.08
2023-03-24T13:31:43.167Z,44.98
2023-03-24T13:32:49.363Z,44.96
2023-03-24T13:33:54.617Z,45.64
2023-03-24T13:35:16.832Z,45.77
2023-03-24T13:36:32.243Z,45.82
2023-03-24T13:37:40.449Z,45.65
2023-03-24T13:38:47.685Z,45.62
2023-03-24T13:39:52.742Z,45.46
2023-03-24T13:40:57.147Z,45.85
2023-03-24T13:42:01.882Z,45.07
2023-03-24T13:43:08.830Z,45.18
2023-03-24T13:44:21.206Z,45.25
2023-03-24T13:45:37.541Z,45.62
2023-03-24T13:46:41.838Z,44.61
2023-03-24T13:47:51.431Z,45.04
2023-03-24T13:48:56.394Z,44.35
2023-03-24T13:50:02.100Z,43.83
2023-03-24T13:51:18.693Z,43.50
2023-03-24T13:52:24.610Z,43.36
2023-03-24T13:53:38.356Z,43.13
2023-03-24T13:54:41.226Z,43.29
2023-03-24T13:55:52.260Z,43.63
2023-03-24T13:56:56.415Z,43.51
2023-03-24T13:58:02.472Z,44.10
2023-03-24T13:59:06.720Z,44.07
2023-03-24T14:00:21.225Z,43.37
2023-03-24T14:02:51.707Z,43.42
2023-03-24T14:04:16.115Z,43.15
2023-03-24T14:05:26.876Z,43.53
2023-03-24T14:06:49.828Z,43.89
2023-03-24T14:07:55.143Z,43.94
2023-03-24T14:09:06.613Z,43.71
2023-03-24T14:10:19.133Z,43.58
2023-03-24T14:11:40.466Z,43.82
2023-03-24T14:12:54.915Z,44.32
2023-03-24T14:14:16.013Z,43.40
2023-03-24T14:15:20.947Z,44.10
2023-03-24T14:16:28.627Z,43.79
2023-03-24T14:17:32.332Z,43.79
2023-03-24T14:18:41.826Z,44.07
2023-03-24T14:19:46.020Z,44.52
2023-03-24T14:21:01.004Z,44.08
2023-03-24T14:22:06.294Z,44.26
2023-03-24T14:23:11.679Z,44.18
2023-03-24T14:24:19.665Z,43.99
2023-03-24T14:25:30.683Z,44.77
2023-03-24T14:26:35.142Z,44.01
2023-03-24T14:27:42.297Z,45.20
2023-03-24T14:28:49.795Z,44.79
2023-03-24T14:29:54.240Z,44.75
2023-03-24T14:31:03.842Z,44.47
2023-03-24T14:32:19.173Z,44.27
2023-03-24T14:33:16.008Z,45.08
2023-03-24T14:34:21.866Z,44.55
2023-03-24T14:35:36.104Z,45.21